createdAt,value
2019-02-18T00:01:19.312Z,90.39
2019-02-18T00:06:24.753Z,89.90
2019-02-18T00:11:30.246Z,89.58
2019-02-18T00:16:35.628Z,89.40
2019-02-18T00:21:41.244Z,89.38
2019-02-18T00:26:46.833Z,89.23
2019-02-18T00:31:52.471Z,89.06
2019-02-18T00:36:57.833Z,88.84
2019-02-18T00:42:03.362Z,89.04
2019-02-18T00:47:08.984Z,89.26
2019-02-18T00:52:14.425Z,89.65
2019-02-18T00:57:19.932Z,89.87
2019-02-18T01:02:26.463Z,89.96
2019-02-18T01:07:34.895Z,89.95
2019-02-18T01:12:40.149Z,89.79
2019-02-18T01:17:45.558Z,89.55
2019-02-18T01:22:51.031Z,89.22
2019-02-18T01:27:56.463Z,89.15
2019-02-18T01:33:01.930Z,89.11
2019-02-18T01:38:07.476Z,89.18
2019-02-18T01:43:12.917Z,89.46
2019-02-18T01:48:18.370Z,89.59
2019-02-18T01:53:23.911Z,89.61
2019-02-18T01:58:29.295Z,89.69
2019-02-18T02:03:34.663Z,89.91
2019-02-18T02:08:40.104Z,89.82
2019-02-18T02:13:45.528Z,89.82
2019-02-18T02:18:51.060Z,89.96
2019-02-18T02:23:56.521Z,89.79
2019-02-18T02:29:01.938Z,89.34
2019-02-18T02:34:07.424Z,89.04
2019-02-18T02:39:12.991Z,88.93
2019-02-18T02:44:18.424Z,88.66
2019-02-18T02:49:23.937Z,88.58
2019-02-18T02:54:29.362Z,88.36
2019-02-18T02:59:34.801Z,88.25
2019-02-18T03:04:40.310Z,88.35
2019-02-18T03:09:45.741Z,88.49
2019-02-18T03:14:51.245Z,88.58
2019-02-18T03:19:56.640Z,88.70
2019-02-18T03:25:19.390Z,88.69
2019-02-18T03:30:42.502Z,88.93
2019-02-18T03:35:48.089Z,89.13
2019-02-18T03:41:02.751Z,89.40
2019-02-18T03:46:00.751Z,89.54
2019-02-18T03:51:06.262Z,89.63
2019-02-18T03:56:11.882Z,89.64
2019-02-18T04:01:17.308Z,89.51
2019-02-18T04:06:22.690Z,89.22
2019-02-18T04:11:28.181Z,89.11
2019-02-18T04:16:33.677Z,88.91
2019-02-18T04:21:39.190Z,88.72
2019-02-18T04:26:44.559Z,88.67
2019-02-18T04:31:50.130Z,88.52
2019-02-18T04:36:55.472Z,88.42
2019-02-18T04:42:00.968Z,88.55
2019-02-18T04:47:06.436Z,88.72
2019-02-18T04:52:11.986Z,88.70
2019-02-18T04:57:17.453Z,88.90
2019-02-18T05:02:22.944Z,88.83
2019-02-18T05:07:28.408Z,88.92
2019-02-18T05:12:34.004Z,88.86
2019-02-18T05:17:39.585Z,88.88
2019-02-18T05:22:45.000Z,88.85
2019-02-18T05:27:50.391Z,88.68
2019-02-18T05:32:55.886Z,88.90
2019-02-18T05:38:01.447Z,89.05
2019-02-18T05:43:06.925Z,89.10
2019-02-18T05:48:12.327Z,89.66
2019-02-18T05:53:17.930Z,89.86
2019-02-18T05:58:23.430Z,89.90
2019-02-18T06:03:28.876Z,86.82
2019-02-18T06:08:34.304Z,85.87
2019-02-18T06:13:39.861Z,85.56
2019-02-18T06:18:45.357Z,86.04
2019-02-18T06:23:52.488Z,86.73
2019-02-18T06:28:57.968Z,86.64
2019-02-18T06:34:03.518Z,86.08
2019-02-18T06:39:09.114Z,86.19
2019-02-18T06:44:14.586Z,86.62
2019-02-18T06:49:22.411Z,87.13
2019-02-18T06:54:28.060Z,87.43
2019-02-18T06:59:38.124Z,87.85
2019-02-18T07:04:47.976Z,88.21
2019-02-18T07:09:59.386Z,88.59
2019-02-18T07:15:05.218Z,88.70
2019-02-18T07:20:10.665Z,89.18
2019-02-18T07:25:16.132Z,89.71
2019-02-18T07:30:21.700Z,88.69
2019-02-18T07:35:28.179Z,87.81
2019-02-18T07:40:33.679Z,87.50
2019-02-18T07:45:39.163Z,87.40
2019-02-18T07:50:44.621Z,87.20
2019-02-18T07:55:49.992Z,86.79
2019-02-18T08:00:55.575Z,85.92
2019-02-18T08:06:00.972Z,85.45
2019-02-18T08:11:06.514Z,85.51
2019-02-18T08:16:12.028Z,84.97
2019-02-18T08:21:17.648Z,84.47
2019-02-18T08:26:23.178Z,84.44
2019-02-18T08:31:28.793Z,84.63
2019-02-18T08:36:34.430Z,84.23
2019-02-18T08:41:40.021Z,85.15
2019-02-18T08:46:45.457Z,84.99
2019-02-18T08:51:50.835Z,85.58
2019-02-18T08:56:56.593Z,86.04
2019-02-18T09:02:02.152Z,85.89
2019-02-18T09:07:07.546Z,86.09
2019-02-18T09:12:13.178Z,86.23
2019-02-18T09:17:18.700Z,86.31
2019-02-18T09:22:32.062Z,86.13
2019-02-18T09:27:37.576Z,85.93
2019-02-18T09:32:43.253Z,85.79
2019-02-18T09:37:48.760Z,85.49
2019-02-18T09:42:54.276Z,84.85
2019-02-18T09:47:59.920Z,84.46
2019-02-18T09:53:05.496Z,84.16
2019-02-18T09:58:11.039Z,83.88
2019-02-18T10:03:17.137Z,83.59
2019-02-18T10:08:22.580Z,84.22
2019-02-18T10:13:28.177Z,84.67
2019-02-18T10:18:33.736Z,83.01
2019-02-18T10:23:39.496Z,79.77
2019-02-18T10:28:45.327Z,77.31
2019-02-18T10:33:50.959Z,75.24
2019-02-18T10:38:56.759Z,71.46
2019-02-18T10:44:02.459Z,71.00
2019-02-18T10:49:18.911Z,65.61
2019-02-18T10:54:16.231Z,67.62
2019-02-18T10:59:21.877Z,65.36
2019-02-18T11:04:27.598Z,63.41
2019-02-18T11:09:33.368Z,61.65
2019-02-18T11:14:39.077Z,58.44
2019-02-18T11:19:44.560Z,64.18
2019-02-18T11:24:50.137Z,58.58
2019-02-18T11:29:55.538Z,60.29
2019-02-18T11:35:01.285Z,57.79
2019-02-18T11:40:11.347Z,58.48
2019-02-18T11:45:16.810Z,59.87
2019-02-18T11:50:22.468Z,54.81
2019-02-18T11:55:27.893Z,55.52
2019-02-18T12:00:33.429Z,53.41
2019-02-18T12:05:40.305Z,53.98
2019-02-18T12:10:45.828Z,52.26
2019-02-18T12:15:51.434Z,55.17
2019-02-18T12:20:56.923Z,55.48
2019-02-18T12:26:02.370Z,59.17
2019-02-18T12:31:08.050Z,61.53
2019-02-18T12:36:13.595Z,58.84
2019-02-18T12:41:19.067Z,60.15
2019-02-18T12:46:24.608Z,60.94
2019-02-18T12:51:31.260Z,56.99
2019-02-18T12:56:36.664Z,54.40
2019-02-18T13:01:42.268Z,50.51
2019-02-18T13:06:47.743Z,49.87
2019-02-18T13:11:59.011Z,49.74
2019-02-18T13:17:00.505Z,50.12
2019-02-18T13:22:06.074Z,49.86
2019-02-18T13:27:11.564Z,49.71
2019-02-18T13:32:17.221Z,50.48
2019-02-18T13:37:22.703Z,49.60
2019-02-18T13:42:31.087Z,51.87
2019-02-18T13:47:37.274Z,50.02
2019-02-18T13:52:43.029Z,51.58
2019-02-18T13:57:48.667Z,47.44
2019-02-18T14:02:54.155Z,49.82
2019-02-18T14:07:59.575Z,49.86
2019-02-18T14:13:05.128Z,48.28
2019-02-18T14:18:10.794Z,48.28
2019-02-18T14:23:16.707Z,50.21
2019-02-18T14:28:22.051Z,51.63
2019-02-18T14:33:27.470Z,53.30
2019-02-18T14:38:32.922Z,52.24
2019-02-18T14:43:38.478Z,52.29
2019-02-18T14:48:43.932Z,54.56
2019-02-18T14:53:49.613Z,53.34
2019-02-18T14:58:55.398Z,54.33
2019-02-18T15:04:01.020Z,56.58
2019-02-18T15:09:07.855Z,56.65
2019-02-18T15:14:13.550Z,57.88
2019-02-18T15:19:19.414Z,58.75
2019-02-18T15:24:25.024Z,56.59
2019-02-18T15:29:30.592Z,57.33
2019-02-18T15:34:36.257Z,58.34
2019-02-18T15:39:41.784Z,58.94
2019-02-18T15:44:52.269Z,59.25
2019-02-18T15:49:57.942Z,59.37
2019-02-18T15:55:04.169Z,60.14
2019-02-18T16:00:13.204Z,60.97
2019-02-18T16:05:18.638Z,63.53
2019-02-18T16:10:24.139Z,63.69
2019-02-18T16:15:29.562Z,64.57
2019-02-18T16:20:35.083Z,65.32
2019-02-18T16:25:40.550Z,64.85
2019-02-18T16:30:46.269Z,66.71
2019-02-18T16:35:51.841Z,67.43
2019-02-18T16:40:57.409Z,67.65
2019-02-18T16:46:03.631Z,67.43
2019-02-18T16:51:09.785Z,67.69
2019-02-18T16:56:15.382Z,69.04
2019-02-18T17:01:21.262Z,68.68
2019-02-18T17:06:26.756Z,69.06
2019-02-18T17:11:32.181Z,70.20
2019-02-18T17:16:37.680Z,71.68
2019-02-18T17:26:55.443Z,72.81
2019-02-18T17:32:01.047Z,73.91
2019-02-18T17:37:06.811Z,74.83
2019-02-18T17:42:12.360Z,75.08
2019-02-18T17:47:18.340Z,75.59
2019-02-18T17:52:25.251Z,76.32
2019-02-18T17:57:31.002Z,76.74
2019-02-18T18:02:39.002Z,77.01
2019-02-18T18:07:44.721Z,77.69
2019-02-18T18:12:50.381Z,78.05
2019-02-18T18:17:56.062Z,78.19
2019-02-18T18:23:01.843Z,78.26
2019-02-18T18:28:07.356Z,78.12
2019-02-18T18:33:13.041Z,78.55
2019-02-18T18:38:18.781Z,78.77
2019-02-18T18:43:33.427Z,79.26
2019-02-18T18:48:32.162Z,80.40
2019-02-18T18:53:37.681Z,80.36
2019-02-18T18:58:43.174Z,80.05
2019-02-18T19:03:49.987Z,80.38
2019-02-18T19:08:55.492Z,80.70
2019-02-18T19:14:01.221Z,80.82
2019-02-18T19:19:06.960Z,81.30
2019-02-18T19:24:12.780Z,81.21
2019-02-18T19:29:18.281Z,81.32
2019-02-18T19:34:23.920Z,81.28
2019-02-18T19:39:29.520Z,80.61
2019-02-18T19:44:35.341Z,80.82
2019-02-18T19:49:40.961Z,80.64
2019-02-18T19:54:46.582Z,80.83
2019-02-18T19:59:52.132Z,81.24
2019-02-18T20:04:57.903Z,81.46
2019-02-18T20:10:05.037Z,81.73
2019-02-18T20:15:11.199Z,81.74
2019-02-18T20:20:17.038Z,81.31
2019-02-18T20:25:22.782Z,80.91
2019-02-18T20:30:28.437Z,81.24
2019-02-18T20:35:34.054Z,81.04
2019-02-18T20:40:39.948Z,81.28
2019-02-18T20:45:45.743Z,81.50
2019-02-18T20:50:51.480Z,81.69
2019-02-18T20:55:59.637Z,81.86
2019-02-18T21:01:05.373Z,82.68
2019-02-18T21:06:11.006Z,82.31
2019-02-18T21:11:16.619Z,81.70
2019-02-18T21:16:22.341Z,81.68
2019-02-18T21:21:28.820Z,81.28
2019-02-18T21:26:36.684Z,81.30
2019-02-18T21:31:41.862Z,81.43
2019-02-18T21:36:47.620Z,81.76
2019-02-18T21:41:53.161Z,82.45
2019-02-18T21:46:58.702Z,82.72
2019-02-18T21:52:04.240Z,82.54
2019-02-18T21:57:09.920Z,82.44
2019-02-18T22:02:15.576Z,82.63
2019-02-18T22:07:21.362Z,83.32
2019-02-18T22:12:27.379Z,83.63
2019-02-18T22:17:32.965Z,83.04
2019-02-18T22:22:38.879Z,82.57
2019-02-18T22:27:45.103Z,81.84
2019-02-18T22:32:50.658Z,81.47
2019-02-18T22:37:56.601Z,81.76
2019-02-18T22:43:02.202Z,81.82
2019-02-18T22:48:07.902Z,81.86
2019-02-18T22:53:13.540Z,82.09
2019-02-18T22:58:20.485Z,82.59
2019-02-18T23:03:26.362Z,82.96
2019-02-18T23:08:31.964Z,83.19
2019-02-18T23:13:38.102Z,83.29
2019-02-18T23:18:43.760Z,83.89
2019-02-18T23:23:49.304Z,84.63
2019-02-18T23:28:54.842Z,84.64
2019-02-18T23:34:00.282Z,84.74
2019-02-18T23:39:07.387Z,84.50
2019-02-18T23:44:13.143Z,84.51
2019-02-18T23:49:18.645Z,84.85
2019-02-18T23:54:24.060Z,85.05
2019-02-18T23:59:29.497Z,85.24
